createdAt,value
2018-10-02T00:01:45.593Z,3.10
2018-10-02T00:04:14.840Z,3.70
2018-10-02T00:06:43.729Z,5.13
2018-10-02T00:09:13.613Z,5.57
2018-10-02T00:11:47.728Z,5.20
2018-10-02T00:14:21.876Z,4.33
2018-10-02T00:16:50.828Z,7.50
2018-10-02T00:19:19.700Z,6.87
2018-10-02T00:21:48.864Z,6.60
2018-10-02T00:24:17.785Z,4.80
2018-10-02T00:26:46.750Z,9.00
2018-10-02T00:29:15.738Z,7.20
2018-10-02T00:31:44.770Z,3.60
2018-10-02T00:34:13.733Z,2.10
2018-10-02T00:36:42.306Z,4.83
2018-10-02T00:39:11.208Z,6.57
2018-10-02T00:41:40.129Z,5.00
2018-10-02T00:44:09.065Z,9.30
2018-10-02T00:46:37.992Z,4.37
2018-10-02T00:49:06.903Z,7.23
2018-10-02T00:51:35.841Z,6.27
2018-10-02T00:54:04.725Z,7.73
2018-10-02T00:56:33.480Z,3.30
2018-10-02T00:59:02.380Z,5.47
2018-10-02T01:01:31.413Z,5.73
2018-10-02T01:03:59.913Z,5.53
2018-10-02T01:06:28.403Z,4.90
2018-10-02T01:08:56.898Z,7.33
2018-10-02T01:11:25.458Z,4.83
2018-10-02T01:13:54.057Z,6.67
2018-10-02T01:16:22.631Z,3.73
2018-10-02T01:18:51.208Z,5.47
2018-10-02T01:21:19.694Z,6.57
2018-10-02T01:23:48.188Z,5.17
2018-10-02T01:26:16.690Z,7.90
2018-10-02T01:28:45.215Z,10.23
2018-10-02T01:31:13.686Z,4.10
2018-10-02T01:33:42.290Z,3.77
2018-10-02T01:36:11.058Z,6.60
2018-10-02T01:38:39.700Z,7.07
2018-10-02T01:41:08.291Z,4.17
2018-10-02T01:43:36.761Z,3.47
2018-10-02T01:46:05.293Z,5.37
2018-10-02T01:48:34.429Z,7.37
2018-10-02T01:51:02.990Z,8.67
2018-10-02T01:53:31.502Z,6.50
2018-10-02T01:56:00.188Z,5.83
2018-10-02T01:58:28.610Z,7.33
2018-10-02T02:00:57.221Z,2.43
2018-10-02T02:03:25.650Z,12.47
2018-10-02T02:05:54.171Z,6.37
2018-10-02T02:08:23.595Z,2.90
2018-10-02T02:10:52.143Z,13.10
2018-10-02T02:13:20.941Z,7.60
2018-10-02T02:15:49.564Z,5.33
2018-10-02T02:18:18.415Z,6.20
2018-10-02T02:20:47.029Z,8.23
2018-10-02T02:23:15.667Z,4.63
2018-10-02T02:25:44.398Z,5.30
2018-10-02T02:28:13.018Z,2.60
2018-10-02T02:30:42.727Z,5.50
2018-10-02T02:33:11.717Z,7.07
2018-10-02T02:35:40.325Z,13.33
2018-10-02T02:38:08.940Z,8.27
2018-10-02T02:40:37.669Z,8.40
2018-10-02T02:43:06.259Z,8.30
2018-10-02T02:45:34.947Z,12.30
2018-10-02T02:48:09.768Z,5.30
2018-10-02T02:50:50.546Z,9.33
2018-10-02T02:53:21.717Z,5.87
2018-10-02T02:55:51.148Z,9.53
2018-10-02T02:58:19.950Z,11.33
2018-10-02T03:00:49.805Z,6.77
2018-10-02T03:03:20.762Z,9.13
2018-10-02T03:05:49.565Z,4.73
2018-10-02T03:08:18.264Z,13.63
2018-10-02T03:10:47.086Z,9.97
2018-10-02T03:13:19.080Z,10.50
2018-10-02T03:15:49.252Z,11.30
2018-10-02T03:18:18.022Z,9.83
2018-10-02T03:20:46.829Z,10.60
2018-10-02T03:23:16.349Z,5.77
2018-10-02T03:25:45.027Z,10.73
2018-10-02T03:28:13.643Z,6.50
2018-10-02T03:30:42.308Z,4.10
2018-10-02T03:33:11.252Z,7.67
2018-10-02T03:35:40.272Z,6.23
2018-10-02T03:38:09.013Z,8.77
2018-10-02T03:40:38.148Z,8.20
2018-10-02T03:43:07.642Z,8.37
2018-10-02T03:45:36.398Z,8.80
2018-10-02T03:48:07.287Z,11.50
2018-10-02T03:50:35.984Z,8.83
2018-10-02T03:53:04.837Z,11.63
2018-10-02T03:55:33.544Z,8.30
2018-10-02T03:58:02.195Z,6.10
2018-10-02T04:00:33.152Z,6.97
2018-10-02T04:03:01.841Z,7.03
2018-10-02T04:05:30.677Z,8.97
2018-10-02T04:07:59.907Z,7.90
2018-10-02T04:10:28.922Z,6.87
2018-10-02T04:12:58.925Z,7.97
2018-10-02T04:15:27.598Z,13.40
2018-10-02T04:17:57.635Z,4.17
2018-10-02T04:20:26.407Z,6.00
2018-10-02T04:22:55.603Z,6.03
2018-10-02T04:25:25.142Z,7.97
2018-10-02T04:27:55.675Z,5.27
2018-10-02T04:30:24.215Z,7.53
2018-10-02T04:32:53.053Z,11.27
2018-10-02T04:35:24.216Z,7.87
2018-10-02T04:37:53.419Z,9.13
2018-10-02T04:40:23.689Z,6.57
2018-10-02T04:42:52.604Z,5.07
2018-10-02T04:45:21.320Z,5.20
2018-10-02T04:47:53.583Z,6.00
2018-10-02T04:50:23.399Z,4.97
2018-10-02T04:52:51.900Z,5.03
2018-10-02T04:55:20.427Z,6.37
2018-10-02T04:57:48.899Z,7.93
2018-10-02T05:00:17.511Z,6.23
2018-10-02T05:02:46.093Z,9.83
2018-10-02T05:05:14.565Z,5.13
2018-10-02T05:07:43.047Z,9.33
2018-10-02T05:10:11.558Z,9.67
2018-10-02T05:12:40.033Z,4.20
2018-10-02T05:15:08.515Z,5.40
2018-10-02T05:17:36.988Z,6.83
2018-10-02T05:20:05.440Z,7.53
2018-10-02T05:22:33.912Z,10.03
2018-10-02T05:25:02.456Z,6.73
2018-10-02T05:27:30.968Z,8.37
2018-10-02T05:29:59.434Z,5.57
2018-10-02T05:32:27.920Z,3.93
2018-10-02T05:34:56.422Z,7.00
2018-10-02T05:37:24.875Z,7.90
2018-10-02T05:39:53.285Z,4.47
2018-10-02T05:42:21.744Z,7.00
2018-10-02T05:44:50.166Z,3.77
2018-10-02T05:47:18.627Z,4.23
2018-10-02T05:49:47.049Z,4.13
2018-10-02T05:52:15.532Z,3.90
2018-10-02T05:54:43.992Z,10.87
2018-10-02T05:57:12.464Z,9.13
2018-10-02T05:59:40.925Z,6.73
2018-10-02T06:02:09.529Z,9.00
2018-10-02T06:04:38.000Z,4.53
2018-10-02T06:07:06.733Z,9.03
2018-10-02T06:09:35.236Z,7.23
2018-10-02T06:12:03.721Z,7.13
2018-10-02T06:14:32.166Z,10.23
2018-10-02T06:17:00.726Z,7.67
2018-10-02T06:19:29.168Z,8.77
2018-10-02T06:21:57.677Z,3.53
2018-10-02T06:24:26.146Z,5.27
2018-10-02T06:26:54.608Z,9.37
2018-10-02T06:29:23.131Z,6.50
2018-10-02T06:31:51.607Z,10.10
2018-10-02T06:34:20.059Z,10.07
2018-10-02T06:36:48.560Z,6.87
2018-10-02T06:39:16.984Z,7.63
2018-10-02T06:41:45.488Z,4.80
2018-10-02T06:44:13.944Z,9.80
2018-10-02T06:46:42.436Z,8.90
2018-10-02T06:49:10.883Z,8.90
2018-10-02T06:51:39.400Z,4.10
2018-10-02T06:54:07.844Z,10.73
2018-10-02T06:56:36.377Z,11.20
2018-10-02T06:59:04.777Z,8.57
2018-10-02T07:01:33.363Z,5.13
2018-10-02T07:04:01.813Z,6.20
2018-10-02T07:06:30.275Z,6.57
2018-10-02T07:08:58.746Z,7.87
2018-10-02T07:11:27.200Z,5.87
2018-10-02T07:13:55.654Z,4.40
2018-10-02T07:16:24.078Z,6.27
2018-10-02T07:18:52.728Z,8.33
2018-10-02T07:21:21.382Z,4.50
2018-10-02T07:23:51.716Z,10.87
2018-10-02T07:26:20.750Z,4.77
2018-10-02T07:28:49.966Z,14.57
2018-10-02T07:31:18.573Z,4.27
2018-10-02T07:33:47.495Z,5.17
2018-10-02T07:36:16.890Z,9.37
2018-10-02T07:38:45.583Z,7.43
2018-10-02T07:41:14.227Z,3.90
2018-10-02T07:43:46.354Z,4.50
2018-10-02T07:46:16.580Z,5.83
2018-10-02T07:48:45.165Z,9.23
2018-10-02T07:51:14.531Z,11.67
2018-10-02T07:53:43.527Z,3.90
2018-10-02T07:56:12.729Z,6.07
2018-10-02T07:58:42.025Z,11.60
2018-10-02T08:01:11.075Z,3.40
2018-10-02T08:03:39.778Z,5.70
2018-10-02T08:06:09.873Z,6.63
2018-10-02T08:08:38.582Z,4.80
2018-10-02T08:11:07.346Z,8.33
2018-10-02T08:13:35.920Z,6.23
2018-10-02T08:16:04.485Z,2.70
2018-10-02T08:18:33.003Z,5.00
2018-10-02T08:21:01.579Z,4.33
2018-10-02T08:23:30.144Z,5.90
2018-10-02T08:25:58.647Z,5.63
2018-10-02T08:28:27.244Z,5.80
2018-10-02T08:30:55.869Z,6.53
2018-10-02T08:33:24.500Z,6.53
2018-10-02T08:35:53.103Z,5.10
2018-10-02T08:38:21.533Z,11.83
2018-10-02T08:40:50.071Z,11.27
2018-10-02T08:43:18.644Z,13.07
2018-10-02T08:45:47.117Z,11.07
2018-10-02T08:48:15.620Z,6.83
2018-10-02T08:50:44.203Z,8.87
2018-10-02T08:53:12.741Z,13.73
2018-10-02T08:55:41.240Z,14.83
2018-10-02T08:58:09.799Z,10.87
2018-10-02T09:00:38.345Z,4.73
2018-10-02T09:03:06.940Z,5.00
2018-10-02T09:05:35.399Z,5.10
2018-10-02T09:08:03.947Z,6.10
2018-10-02T09:10:32.452Z,4.60
2018-10-02T09:13:01.013Z,5.57
2018-10-02T09:15:29.475Z,4.97
2018-10-02T09:17:57.987Z,5.10
2018-10-02T09:20:26.409Z,4.50
2018-10-02T09:22:54.910Z,4.87
2018-10-02T09:25:23.360Z,5.23
2018-10-02T09:27:51.956Z,5.00
2018-10-02T09:30:25.878Z,5.73
2018-10-02T09:32:59.708Z,5.93
2018-10-02T09:35:33.536Z,5.50
2018-10-02T09:38:07.344Z,5.40
2018-10-02T09:40:41.175Z,5.00
2018-10-02T09:43:16.056Z,5.43
2018-10-02T09:45:45.909Z,5.00
2018-10-02T09:48:15.932Z,5.60
2018-10-02T09:50:44.441Z,6.30
2018-10-02T09:53:13.007Z,6.10
2018-10-02T09:55:41.545Z,5.47
2018-10-02T09:58:10.019Z,5.97
2018-10-02T10:00:43.827Z,5.33
2018-10-02T10:03:12.260Z,5.23
2018-10-02T10:05:40.705Z,6.00
2018-10-02T10:08:09.169Z,6.23
2018-10-02T10:10:37.669Z,7.37
2018-10-02T10:13:06.204Z,6.87
2018-10-02T10:15:34.620Z,6.47
2018-10-02T10:18:03.079Z,6.93
2018-10-02T10:20:31.512Z,7.30
2018-10-02T10:23:00.018Z,6.53
2018-10-02T10:25:28.489Z,7.30
2018-10-02T10:27:56.994Z,8.97
2018-10-02T10:30:25.427Z,6.87
2018-10-02T10:32:53.908Z,7.73
2018-10-02T10:35:22.655Z,6.43
2018-10-02T10:37:51.948Z,8.87
2018-10-02T10:40:20.601Z,6.27
2018-10-02T10:42:49.494Z,6.67
2018-10-02T10:45:17.996Z,5.97
2018-10-02T10:47:46.499Z,5.90
2018-10-02T10:50:15.739Z,7.30
2018-10-02T10:52:44.983Z,6.80
2018-10-02T10:55:27.570Z,7.13
2018-10-02T10:57:56.053Z,6.97
2018-10-02T11:00:25.904Z,6.47
2018-10-02T11:02:55.015Z,6.10
2018-10-02T11:05:23.519Z,6.77
2018-10-02T11:07:53.040Z,6.63
2018-10-02T11:10:21.971Z,7.03
2018-10-02T11:12:51.004Z,6.97
2018-10-02T11:15:21.467Z,7.33
2018-10-02T11:17:50.091Z,6.47
2018-10-02T11:20:23.141Z,6.57
2018-10-02T11:22:51.690Z,6.97
2018-10-02T11:25:20.632Z,6.70
2018-10-02T11:27:50.228Z,6.77
2018-10-02T11:30:19.456Z,6.50
2018-10-02T11:32:47.941Z,6.43
2018-10-02T11:35:17.569Z,6.63
2018-10-02T11:37:46.227Z,6.33
2018-10-02T11:40:14.673Z,6.43
2018-10-02T11:42:43.132Z,7.27
2018-10-02T11:45:11.544Z,6.63
2018-10-02T11:47:40.910Z,6.30
2018-10-02T11:50:09.379Z,5.50
2018-10-02T11:52:37.890Z,5.97
2018-10-02T11:55:06.452Z,5.67
2018-10-02T11:57:34.918Z,5.27
2018-10-02T12:00:03.688Z,5.37
2018-10-02T12:02:32.270Z,5.57
2018-10-02T12:05:00.729Z,5.53
2018-10-02T12:07:29.204Z,5.20
2018-10-02T12:09:57.652Z,5.10
2018-10-02T12:12:26.138Z,5.60
2018-10-02T12:14:54.641Z,4.83
2018-10-02T12:17:23.130Z,5.30
2018-10-02T12:19:51.833Z,5.20
2018-10-02T12:22:20.179Z,5.30
2018-10-02T12:24:48.772Z,5.43
2018-10-02T12:27:17.286Z,4.97
2018-10-02T12:29:45.719Z,5.60
2018-10-02T12:32:14.217Z,5.47
2018-10-02T12:34:42.648Z,5.10
2018-10-02T12:37:11.124Z,5.53
2018-10-02T12:39:39.543Z,5.23
2018-10-02T12:42:09.692Z,5.23
2018-10-02T12:44:38.117Z,5.43
2018-10-02T12:47:06.738Z,5.27
2018-10-02T12:49:35.177Z,6.20
2018-10-02T12:52:03.646Z,6.10
2018-10-02T12:54:32.133Z,6.33
2018-10-02T12:57:00.612Z,6.33
2018-10-02T12:59:29.109Z,5.93
2018-10-02T13:01:57.624Z,5.93
2018-10-02T13:04:26.169Z,7.13
2018-10-02T13:06:54.699Z,5.80
2018-10-02T13:09:23.127Z,5.83
2018-10-02T13:11:51.599Z,7.23
2018-10-02T13:14:20.119Z,8.30
2018-10-02T13:16:48.913Z,8.77
2018-10-02T13:19:17.389Z,9.10
2018-10-02T13:21:45.868Z,9.87
2018-10-02T13:24:14.348Z,8.43
2018-10-02T13:26:42.812Z,10.10
2018-10-02T13:29:11.305Z,9.33
2018-10-02T13:31:39.745Z,10.07
2018-10-02T13:34:08.213Z,10.07
2018-10-02T13:36:36.687Z,10.63
2018-10-02T13:39:07.278Z,12.07
2018-10-02T13:41:35.747Z,12.43
2018-10-02T13:44:04.350Z,12.13
2018-10-02T13:46:33.975Z,12.60
2018-10-02T13:49:02.989Z,14.00
2018-10-02T13:51:32.158Z,13.57
2018-10-02T13:54:01.283Z,13.10
2018-10-02T13:56:30.512Z,16.20
2018-10-02T13:58:59.995Z,16.87
2018-10-02T14:01:29.167Z,15.40
2018-10-02T14:03:58.390Z,15.03
2018-10-02T14:06:27.630Z,15.60
2018-10-02T14:08:56.157Z,16.77
2018-10-02T14:11:24.589Z,15.53
2018-10-02T14:13:53.169Z,14.67
2018-10-02T14:16:22.036Z,17.77
2018-10-02T14:18:50.565Z,14.70
2018-10-02T14:21:19.041Z,15.93
2018-10-02T14:23:47.563Z,14.57
2018-10-02T14:26:15.999Z,16.23
2018-10-02T14:28:44.523Z,16.73
2018-10-02T14:31:12.975Z,14.03
2018-10-02T14:33:41.648Z,15.10
2018-10-02T14:36:10.111Z,14.87
2018-10-02T14:38:38.617Z,16.23
2018-10-02T14:41:07.308Z,15.23
2018-10-02T14:43:35.797Z,13.07
2018-10-02T14:46:04.336Z,18.20
2018-10-02T14:48:32.919Z,13.37
2018-10-02T14:51:01.396Z,13.40
2018-10-02T14:53:29.860Z,17.77
2018-10-02T14:55:58.290Z,11.37
2018-10-02T14:58:26.781Z,12.17
2018-10-02T15:00:55.268Z,16.37
2018-10-02T15:03:23.832Z,19.47
2018-10-02T15:05:52.365Z,14.53
2018-10-02T15:08:20.819Z,15.27
2018-10-02T15:10:49.291Z,16.73
2018-10-02T15:13:17.775Z,20.13
2018-10-02T15:15:46.260Z,14.00
2018-10-02T15:18:14.744Z,15.37
2018-10-02T15:20:43.307Z,12.67
2018-10-02T15:23:11.999Z,16.27
2018-10-02T15:25:40.436Z,14.27
2018-10-02T15:28:08.921Z,18.60
2018-10-02T15:30:37.562Z,14.60
2018-10-02T15:33:06.201Z,20.73
2018-10-02T15:35:34.711Z,14.33
2018-10-02T15:38:03.264Z,25.77
2018-10-02T15:40:31.696Z,16.03
2018-10-02T15:43:00.174Z,25.13
2018-10-02T15:45:29.965Z,15.50
2018-10-02T15:47:58.414Z,20.13
2018-10-02T15:50:26.910Z,19.97
2018-10-02T15:52:55.348Z,20.77
2018-10-02T15:55:23.910Z,23.47
2018-10-02T15:57:52.402Z,19.37
2018-10-02T16:00:20.857Z,17.33
2018-10-02T16:02:49.392Z,19.60
2018-10-02T16:05:17.868Z,21.33
2018-10-02T16:07:46.314Z,22.50
2018-10-02T16:10:14.773Z,23.47
2018-10-02T16:12:43.207Z,20.43
2018-10-02T16:15:11.776Z,23.53
2018-10-02T16:17:40.238Z,26.20
2018-10-02T16:20:08.695Z,28.40
2018-10-02T16:22:37.143Z,26.13
2018-10-02T16:25:05.765Z,19.97
2018-10-02T16:27:34.248Z,28.23
2018-10-02T16:30:04.060Z,21.47
2018-10-02T16:32:32.885Z,25.23
2018-10-02T16:35:01.618Z,17.40
2018-10-02T16:37:30.150Z,31.13
2018-10-02T16:39:58.665Z,18.47
2018-10-02T16:42:27.152Z,21.47
2018-10-02T16:44:55.622Z,17.30
2018-10-02T16:47:25.363Z,23.80
2018-10-02T16:49:53.814Z,21.77
2018-10-02T16:52:22.327Z,28.50
2018-10-02T16:54:51.086Z,20.83
2018-10-02T16:57:19.742Z,24.77
2018-10-02T16:59:48.198Z,17.13
2018-10-02T17:02:16.703Z,26.63
2018-10-02T17:04:45.223Z,19.83
2018-10-02T17:07:14.002Z,21.53
2018-10-02T17:09:42.619Z,21.33
2018-10-02T17:12:11.230Z,27.97
2018-10-02T17:14:40.126Z,23.63
2018-10-02T17:17:09.152Z,22.47
2018-10-02T17:19:37.964Z,24.13
2018-10-02T17:22:06.758Z,25.90
2018-10-02T17:24:35.279Z,29.03
2018-10-02T17:27:03.836Z,24.60
2018-10-02T17:29:32.427Z,25.13
2018-10-02T17:32:00.958Z,24.83
2018-10-02T17:34:29.485Z,22.13
2018-10-02T17:36:58.015Z,19.80
2018-10-02T17:39:26.578Z,20.43
2018-10-02T17:41:55.896Z,16.57
2018-10-02T17:44:24.449Z,20.13
2018-10-02T17:46:52.974Z,23.10
2018-10-02T17:49:21.541Z,25.30
2018-10-02T17:51:51.968Z,20.73
2018-10-02T17:54:20.646Z,24.07
2018-10-02T17:56:49.280Z,19.30
2018-10-02T17:59:19.161Z,18.47
2018-10-02T18:01:47.790Z,21.73
2018-10-02T18:04:17.157Z,20.47
2018-10-02T18:06:46.937Z,16.73
2018-10-02T18:09:15.571Z,14.43
2018-10-02T18:11:44.186Z,25.30
2018-10-02T18:14:13.303Z,13.00
2018-10-02T18:16:41.933Z,18.97
2018-10-02T18:19:10.708Z,25.60
2018-10-02T18:21:39.330Z,17.33
2018-10-02T18:24:07.949Z,22.63
2018-10-02T18:26:36.476Z,18.37
2018-10-02T18:29:05.064Z,18.83
2018-10-02T18:31:33.580Z,20.30
2018-10-02T18:34:02.150Z,23.47
2018-10-02T18:36:31.192Z,23.40
2018-10-02T18:38:59.931Z,10.00
2018-10-02T18:41:28.727Z,17.63
2018-10-02T18:43:57.926Z,19.17
2018-10-02T18:46:26.963Z,17.37
2018-10-02T18:48:56.179Z,21.73
2018-10-02T18:51:24.758Z,17.13
2018-10-02T18:53:56.189Z,19.13
2018-10-02T18:56:27.084Z,17.67
2018-10-02T18:58:58.238Z,16.40
2018-10-02T19:01:31.696Z,21.50
2018-10-02T19:04:03.181Z,18.47
2018-10-02T19:06:32.823Z,15.87
2018-10-02T19:09:09.635Z,22.93
2018-10-02T19:11:44.559Z,16.33
2018-10-02T19:14:13.510Z,15.97
2018-10-02T19:16:43.492Z,21.93
2018-10-02T19:19:17.646Z,13.20
2018-10-02T19:21:46.947Z,18.63
2018-10-02T19:24:15.464Z,10.07
2018-10-02T19:26:44.254Z,16.50
2018-10-02T19:29:12.903Z,14.67
2018-10-02T19:31:46.735Z,13.53
2018-10-02T19:34:15.260Z,11.50
2018-10-02T19:36:43.929Z,14.57
2018-10-02T19:39:16.655Z,17.70
2018-10-02T19:41:45.128Z,17.87
2018-10-02T19:44:13.643Z,17.03
2018-10-02T19:46:48.138Z,19.03
2018-10-02T19:49:18.939Z,19.00
2018-10-02T19:51:53.211Z,16.93
2018-10-02T19:54:22.511Z,16.90
2018-10-02T19:56:50.940Z,11.83
2018-10-02T19:59:19.419Z,20.03
2018-10-02T20:01:47.904Z,20.13
2018-10-02T20:04:16.365Z,22.30
2018-10-02T20:06:44.826Z,20.47
2018-10-02T20:09:13.375Z,19.37
2018-10-02T20:11:41.855Z,13.60
2018-10-02T20:14:11.030Z,14.37
2018-10-02T20:16:39.553Z,17.67
2018-10-02T20:19:08.082Z,14.23
2018-10-02T20:21:36.646Z,17.83
2018-10-02T20:24:05.151Z,20.40
2018-10-02T20:26:33.620Z,19.57
2018-10-02T20:29:02.278Z,19.90
2018-10-02T20:31:32.228Z,20.50
2018-10-02T20:34:00.699Z,15.77
2018-10-02T20:36:29.144Z,24.53
2018-10-02T20:38:57.777Z,19.27
2018-10-02T20:41:26.290Z,21.67
2018-10-02T20:43:54.784Z,20.63
2018-10-02T20:46:23.271Z,13.27
2018-10-02T20:48:51.757Z,19.27
2018-10-02T20:51:20.225Z,13.53
2018-10-02T20:53:48.678Z,19.20
2018-10-02T20:56:17.183Z,20.27
2018-10-02T20:58:45.612Z,21.33
2018-10-02T21:01:14.091Z,22.07
2018-10-02T21:03:42.544Z,20.07
2018-10-02T21:06:10.982Z,20.83
2018-10-02T21:08:39.488Z,11.87
2018-10-02T21:11:08.022Z,18.87
2018-10-02T21:13:36.528Z,28.37
2018-10-02T21:16:04.970Z,20.10
2018-10-02T21:18:33.455Z,21.77
2018-10-02T21:21:01.877Z,26.23
2018-10-02T21:23:30.343Z,29.63
2018-10-02T21:25:58.762Z,20.77
2018-10-02T21:28:27.259Z,23.27
2018-10-02T21:30:55.726Z,24.73
2018-10-02T21:33:24.574Z,23.10
2018-10-02T21:35:52.988Z,16.30
2018-10-02T21:38:21.517Z,16.73
2018-10-02T21:40:49.965Z,25.57
2018-10-02T21:43:18.411Z,23.37
2018-10-02T21:45:46.914Z,30.83
2018-10-02T21:48:15.363Z,26.00
2018-10-02T21:50:43.806Z,21.00
2018-10-02T21:53:12.302Z,31.20
2018-10-02T21:55:40.744Z,24.23
2018-10-02T21:58:09.189Z,21.00
2018-10-02T22:00:37.632Z,27.87
2018-10-02T22:03:06.249Z,27.53
2018-10-02T22:05:34.682Z,21.43
2018-10-02T22:08:03.143Z,28.53
2018-10-02T22:10:31.547Z,28.43
2018-10-02T22:12:59.976Z,25.07
2018-10-02T22:15:28.504Z,19.43
2018-10-02T22:17:56.919Z,26.77
2018-10-02T22:20:25.355Z,19.43
2018-10-02T22:22:53.808Z,19.13
2018-10-02T22:25:22.379Z,23.77
2018-10-02T22:27:50.917Z,30.23
2018-10-02T22:30:19.435Z,27.40
2018-10-02T22:32:48.039Z,27.13
2018-10-02T22:35:16.580Z,25.57
2018-10-02T22:37:45.075Z,22.70
2018-10-02T22:40:13.514Z,31.87
2018-10-02T22:42:42.016Z,21.50
2018-10-02T22:45:10.495Z,21.90
2018-10-02T22:47:39.595Z,21.80
2018-10-02T22:50:08.282Z,19.80
2018-10-02T22:52:36.873Z,25.43
2018-10-02T22:55:05.435Z,22.00
2018-10-02T22:57:34.046Z,31.43
2018-10-02T23:00:02.457Z,27.10
2018-10-02T23:02:30.982Z,20.33
2018-10-02T23:04:59.523Z,19.03
2018-10-02T23:07:27.971Z,21.53
2018-10-02T23:09:56.380Z,15.63
2018-10-02T23:12:24.875Z,22.27
2018-10-02T23:14:53.291Z,15.17
2018-10-02T23:17:21.737Z,22.50
2018-10-02T23:19:50.270Z,14.87
2018-10-02T23:22:18.742Z,17.60
2018-10-02T23:24:47.195Z,13.40
2018-10-02T23:27:15.676Z,18.23
2018-10-02T23:29:44.644Z,14.30
2018-10-02T23:32:13.180Z,15.70
2018-10-02T23:34:41.657Z,13.27
2018-10-02T23:37:10.310Z,17.37
2018-10-02T23:39:39.409Z,16.60
2018-10-02T23:42:07.975Z,20.10
2018-10-02T23:44:36.414Z,16.37
2018-10-02T23:47:04.972Z,20.23
2018-10-02T23:49:33.492Z,22.50
2018-10-02T23:52:01.943Z,13.70
2018-10-02T23:54:30.517Z,22.90
2018-10-02T23:56:59.450Z,17.80
2018-10-02T23:59:28.418Z,21.43
